Tripler Army Medical Center, HI

5:36 PM HST on December 18, 2014 (GMT -1000)
Honolulu International | Change Station
CLOSE
Current Station
Airport
Location: Honolulu,
Elevation: 16 ft
Nearby Weather Stations
Active Advisory: High Surf Advisory

Elev 16 ft 21.32 °N, 157.92 °W | Updated 43 minutes ago

Mostly Cloudy
Mostly Cloudy
78 °F
Feels Like 78 °F
N
17
Wind Variable Wind from ENE
Gusts 22 mph

Today
High -- | Low -- °F
--% Chance of Precip.
Yesterday
High -- | Low -- °F
Precip. -- in
7:03 AM 5:53 PM
Waning Crescent, 10% visible
Pressure 30.05 in
Visibility 10.0 miles
Clouds Few 3000 ft
Scattered Clouds 4600 ft
Mostly Cloudy 6500 ft
Mostly Cloudy 23000 ft
Dew Point 66 °F
Humidity 66%
Rainfall 0.00 in
Snow Depth Not available.
UV 0 out of 12
Pollen Not available.
Air Quality Not available.
Flu Activity Not available.
METAR PHNL 190253Z 07015G19KT 10SM FEW030 SCT046 BKN065 BKN230 26/19 A3005 RMK AO2 SLP175 SHRA DSNT NW-N T02560189 55004

More Conditions Fewer Conditions

Pressure 30.05 in
Visibility 10.0 miles
Clouds Few 3000 ft
Scattered Clouds 4600 ft
Mostly Cloudy 6500 ft
Mostly Cloudy 23000 ft
Dew Point 66 °F
Humidity 66%
Rainfall 0.00 in
Snow Depth Not available.
UV 0 out of 12
Pollen Not available.
Air Quality Not available.
Flu Activity Not available.
METAR PHNL 190253Z 07015G19KT 10SM FEW030 SCT046 BKN065 BKN230 26/19 A3005 RMK AO2 SLP175 SHRA DSNT NW-N T02560189 55004

More Conditions Fewer Conditions

10-Day Weather Forecast

Almanac

Astronomy

Dec. 18, 2014 Rise Set
Actual Time
Civil Twilight
Nautical Twilight
Astronomical Twilight
Moon
Length of Visible Light
Length of Day
Tomorrow will be .
, % of the Moon is Illuminated

Today's Extremes

State Highs State Lows

Community

WunderPhotos

Upload Photos

1,778,991 photos uploaded!

WunderBlogs® & News

Nearby

Air Quality

  Air Quality AQ Index Pollutant
Not available.

Snow Depth

Station Depth Elevation

Earthquake Activity

City Distance Mag. Time & Date
Minimum magnitude displayed is 2.5.

Coastal Water Temperatures

Place Temperature

Nearby Weather Stations